createdAt,value
2023-09-18T00:00:52.097Z,7.00
2023-09-18T00:03:21.777Z,6.63
2023-09-18T00:05:50.390Z,6.17
2023-09-18T00:08:19.227Z,6.83
2023-09-18T00:10:49.854Z,6.87
2023-09-18T00:13:17.953Z,7.20
2023-09-18T00:15:47.825Z,6.63
2023-09-18T00:18:18.461Z,6.83
2023-09-18T00:20:49.331Z,6.47
2023-09-18T00:23:17.492Z,5.83
2023-09-18T00:25:45.587Z,6.27
2023-09-18T00:28:13.615Z,6.30
2023-09-18T00:30:51.888Z,6.70
2023-09-18T00:33:21.772Z,6.77
2023-09-18T00:35:50.305Z,7.10
2023-09-18T00:38:18.895Z,7.10
2023-09-18T00:40:47.058Z,6.90
2023-09-18T00:43:15.084Z,6.53
2023-09-18T00:45:46.263Z,6.53
2023-09-18T00:48:16.195Z,7.00
2023-09-18T00:50:46.733Z,6.80
2023-09-18T00:53:18.724Z,7.13
2023-09-18T00:55:47.235Z,6.53
2023-09-18T00:58:16.242Z,6.07
2023-09-18T01:00:45.314Z,7.10
2023-09-18T01:03:13.638Z,6.90
2023-09-18T01:05:41.849Z,6.67
2023-09-18T01:08:11.311Z,6.10
2023-09-18T01:10:51.170Z,6.60
2023-09-18T01:13:24.025Z,6.57
2023-09-18T01:15:56.608Z,6.57
2023-09-18T01:18:24.665Z,6.60
2023-09-18T01:20:52.733Z,6.17
2023-09-18T01:23:22.194Z,6.63
2023-09-18T01:25:50.384Z,6.07
2023-09-18T01:28:18.390Z,6.57
2023-09-18T01:30:46.891Z,6.43
2023-09-18T01:33:15.799Z,6.47
2023-09-18T01:35:44.870Z,6.40
2023-09-18T01:38:13.044Z,7.20
2023-09-18T01:40:43.797Z,6.73
2023-09-18T01:43:11.889Z,6.80
2023-09-18T01:45:40.453Z,7.23
2023-09-18T01:48:08.865Z,6.17
2023-09-18T01:50:38.920Z,6.73
2023-09-18T01:53:06.929Z,6.73
2023-09-18T01:55:34.934Z,6.80
2023-09-18T01:58:04.789Z,6.87
2023-09-18T02:00:33.285Z,6.70
2023-09-18T02:03:06.593Z,7.07
2023-09-18T02:05:49.851Z,7.17
2023-09-18T02:08:18.005Z,6.23
2023-09-18T02:10:46.048Z,7.00
2023-09-18T02:13:15.649Z,6.90
2023-09-18T02:15:43.616Z,7.67
2023-09-18T02:18:11.853Z,7.00
2023-09-18T02:20:43.232Z,7.30
2023-09-18T02:23:11.358Z,7.30
2023-09-18T02:25:39.902Z,6.90
2023-09-18T02:28:07.845Z,7.27
2023-09-18T02:30:37.146Z,6.57
2023-09-18T02:33:06.062Z,6.90
2023-09-18T02:35:34.193Z,7.43
2023-09-18T02:38:03.813Z,7.30
2023-09-18T02:40:31.830Z,7.53
2023-09-18T02:42:59.803Z,6.67
2023-09-18T02:45:27.762Z,6.90
2023-09-18T02:47:57.183Z,6.90
2023-09-18T02:50:25.681Z,7.27
2023-09-18T02:52:53.656Z,6.57
2023-09-18T02:55:21.604Z,7.20
2023-09-18T02:57:49.590Z,7.40
2023-09-18T03:00:21.607Z,7.33
2023-09-18T03:02:58.939Z,6.80
2023-09-18T03:05:27.735Z,6.97
2023-09-18T03:07:55.738Z,7.37
2023-09-18T03:10:23.700Z,7.07
2023-09-18T03:12:51.734Z,7.30
2023-09-18T03:15:20.042Z,6.97
2023-09-18T03:17:48.086Z,6.77
2023-09-18T03:20:17.929Z,7.60
2023-09-18T03:22:45.917Z,7.03
2023-09-18T03:25:13.898Z,6.67
2023-09-18T03:27:41.848Z,7.13
2023-09-18T03:30:13.627Z,7.07
2023-09-18T03:32:41.775Z,6.80
2023-09-18T03:35:10.986Z,6.87
2023-09-18T03:37:40.319Z,7.37
2023-09-18T03:40:09.809Z,7.77
2023-09-18T03:42:38.022Z,7.40
2023-09-18T03:45:08.886Z,7.17
2023-09-18T03:47:37.350Z,7.20
2023-09-18T03:50:05.776Z,7.03
2023-09-18T03:52:33.760Z,6.67
2023-09-18T03:55:03.492Z,7.17
2023-09-18T03:57:31.545Z,6.73
2023-09-18T03:59:59.626Z,8.47
2023-09-18T04:02:28.485Z,7.23
2023-09-18T04:04:56.583Z,7.90
2023-09-18T04:07:24.549Z,7.67
2023-09-18T04:09:52.581Z,7.83
2023-09-18T04:12:21.964Z,8.07
2023-09-18T04:14:49.945Z,7.63
2023-09-18T04:17:17.909Z,7.53
2023-09-18T04:19:46.454Z,7.70
2023-09-18T04:22:14.838Z,7.70
2023-09-18T04:24:42.928Z,7.50
2023-09-18T04:27:11.073Z,7.53
2023-09-18T04:29:40.478Z,7.63
2023-09-18T04:32:08.717Z,7.30
2023-09-18T04:34:36.765Z,7.63
2023-09-18T04:37:05.378Z,7.53
2023-09-18T04:39:35.030Z,7.67
2023-09-18T04:42:06.016Z,7.37
2023-09-18T04:44:34.092Z,7.70
2023-09-18T04:47:04.462Z,7.80
2023-09-18T04:49:32.578Z,8.03
2023-09-18T04:52:00.539Z,7.83
2023-09-18T04:54:28.532Z,7.93
2023-09-18T04:56:56.525Z,8.03
2023-09-18T04:59:24.506Z,7.60
2023-09-18T05:01:52.492Z,7.50
2023-09-18T05:04:22.533Z,7.87
2023-09-18T05:06:50.484Z,7.40
2023-09-18T05:09:18.423Z,8.00
2023-09-18T05:11:46.406Z,7.77
2023-09-18T05:14:17.321Z,7.90
2023-09-18T05:16:45.515Z,8.23
2023-09-18T05:19:13.514Z,8.67
2023-09-18T05:21:43.343Z,8.80
2023-09-18T05:24:11.380Z,8.80
2023-09-18T05:26:39.376Z,8.60
2023-09-18T05:29:07.413Z,8.30
2023-09-18T05:31:35.473Z,7.93
2023-09-18T05:34:03.443Z,7.63
2023-09-18T05:36:31.578Z,8.37
2023-09-18T05:39:00.890Z,8.03
2023-09-18T05:41:30.047Z,8.10
2023-09-18T05:43:58.900Z,8.03
2023-09-18T05:46:26.889Z,8.17
2023-09-18T05:48:58.003Z,8.07
2023-09-18T05:51:25.960Z,8.17
2023-09-18T05:53:53.909Z,7.97
2023-09-18T05:56:25.507Z,7.60
2023-09-18T05:58:54.297Z,7.73
2023-09-18T06:01:22.512Z,8.33
2023-09-18T06:03:50.564Z,7.73
2023-09-18T06:06:18.576Z,8.50
2023-09-18T06:08:46.579Z,8.33
2023-09-18T06:11:14.621Z,8.37
2023-09-18T06:13:43.957Z,8.93
2023-09-18T06:16:11.994Z,7.93
2023-09-18T06:18:40.055Z,8.60
2023-09-18T06:21:08.098Z,8.07
2023-09-18T06:23:36.434Z,8.40
2023-09-18T06:26:05.747Z,8.47
2023-09-18T06:28:33.837Z,8.53
2023-09-18T06:31:03.242Z,8.30
2023-09-18T06:33:31.341Z,8.47
2023-09-18T06:35:59.348Z,8.17
2023-09-18T06:38:27.370Z,8.33
2023-09-18T06:40:56.349Z,8.37
2023-09-18T06:43:24.436Z,8.67
2023-09-18T06:45:52.554Z,8.30
2023-09-18T06:48:22.848Z,8.10
2023-09-18T06:50:50.935Z,8.50
2023-09-18T06:53:18.964Z,7.70
2023-09-18T06:55:46.949Z,8.20
2023-09-18T06:58:14.910Z,8.07
2023-09-18T07:00:43.745Z,8.33
2023-09-18T07:03:13.204Z,7.97
2023-09-18T07:05:44.077Z,7.80
2023-09-18T07:08:14.004Z,8.50
2023-09-18T07:10:42.789Z,7.93
2023-09-18T07:13:11.009Z,8.00
2023-09-18T07:15:39.013Z,8.33
2023-09-18T07:18:07.144Z,7.80
2023-09-18T07:20:37.318Z,7.93
2023-09-18T07:23:07.004Z,8.27
2023-09-18T07:25:35.176Z,7.73
2023-09-18T07:28:03.162Z,8.20
2023-09-18T07:30:31.189Z,8.23
2023-09-18T07:32:59.596Z,8.97
2023-09-18T07:35:27.819Z,8.10
2023-09-18T07:37:55.911Z,7.70
2023-09-18T07:40:25.229Z,7.80
2023-09-18T07:42:53.186Z,8.33
2023-09-18T07:45:21.340Z,7.90
2023-09-18T07:47:49.347Z,10.77
2023-09-18T07:50:19.841Z,7.77
2023-09-18T07:52:48.014Z,7.40
2023-09-18T07:55:16.597Z,8.13
2023-09-18T07:57:46.767Z,7.90
2023-09-18T08:00:16.897Z,7.43
2023-09-18T08:02:44.970Z,7.70
2023-09-18T08:05:13.084Z,7.63
2023-09-18T08:07:41.487Z,7.57
2023-09-18T08:10:10.966Z,7.30
2023-09-18T08:12:39.137Z,7.57
2023-09-18T08:15:10.091Z,7.00
2023-09-18T08:17:38.275Z,7.70
2023-09-18T08:20:13.448Z,7.00
2023-09-18T08:22:41.867Z,7.30
2023-09-18T08:25:11.380Z,7.43
2023-09-18T08:27:43.232Z,7.23
2023-09-18T08:30:14.579Z,6.50
2023-09-18T08:32:44.073Z,7.33
2023-09-18T08:35:12.404Z,7.10
2023-09-18T08:37:41.763Z,6.73
2023-09-18T08:40:14.309Z,6.83
2023-09-18T08:42:46.759Z,7.03
2023-09-18T08:45:21.378Z,7.43
2023-09-18T08:47:49.655Z,7.47
2023-09-18T08:50:17.966Z,7.93
2023-09-18T08:52:47.300Z,7.50
2023-09-18T08:55:15.894Z,7.30
2023-09-18T08:57:45.063Z,7.60
2023-09-18T09:00:17.936Z,7.40
2023-09-18T09:02:46.396Z,6.70
2023-09-18T09:05:14.662Z,7.87
2023-09-18T09:07:42.759Z,7.23
2023-09-18T09:10:11.173Z,7.00
2023-09-18T09:12:54.729Z,6.90
2023-09-18T09:15:25.532Z,7.83
2023-09-18T09:17:54.866Z,7.17
2023-09-18T09:20:22.960Z,7.80
2023-09-18T09:22:51.237Z,7.47
2023-09-18T09:25:29.624Z,7.47
2023-09-18T09:27:57.730Z,7.83
2023-09-18T09:30:29.009Z,7.17
2023-09-18T09:32:59.051Z,7.83
2023-09-18T09:35:29.364Z,8.60
2023-09-18T09:38:00.333Z,7.20
2023-09-18T09:40:29.143Z,7.13
2023-09-18T09:43:02.330Z,6.97
2023-09-18T09:45:36.212Z,7.73
2023-09-18T09:48:06.683Z,7.57
2023-09-18T09:50:35.988Z,8.13
2023-09-18T09:53:04.124Z,7.47
2023-09-18T09:55:34.857Z,7.57
2023-09-18T09:58:04.606Z,7.50
2023-09-18T10:00:44.017Z,7.10
2023-09-18T10:03:13.605Z,7.20
2023-09-18T10:05:43.445Z,6.97
2023-09-18T10:08:15.110Z,7.00
2023-09-18T10:10:49.160Z,8.63
2023-09-18T10:13:19.895Z,6.67
2023-09-18T10:15:52.086Z,7.33
2023-09-18T10:18:28.914Z,7.03
2023-09-18T10:21:08.426Z,7.23
2023-09-18T10:23:55.003Z,7.73
2023-09-18T10:26:30.020Z,6.60
2023-09-18T10:29:00.817Z,6.40
2023-09-18T10:31:31.232Z,7.00
2023-09-18T10:34:00.890Z,6.03
2023-09-18T10:36:34.496Z,6.77
2023-09-18T10:39:07.887Z,7.17
2023-09-18T10:41:37.403Z,6.73
2023-09-18T10:44:06.741Z,6.60
2023-09-18T10:46:36.170Z,6.27
2023-09-18T10:49:05.359Z,6.87
2023-09-18T10:51:34.736Z,6.80
2023-09-18T10:54:04.466Z,6.23
2023-09-18T10:56:33.905Z,8.73
2023-09-18T10:59:03.394Z,7.13
2023-09-18T11:01:32.161Z,8.47
2023-09-18T11:04:03.122Z,10.27
2023-09-18T11:06:31.852Z,6.50
2023-09-18T11:09:05.432Z,7.30
2023-09-18T11:11:36.437Z,7.57
2023-09-18T11:14:05.725Z,6.47
2023-09-18T11:16:40.310Z,6.07
2023-09-18T11:19:14.894Z,8.77
2023-09-18T11:21:44.094Z,7.47
2023-09-18T11:24:19.092Z,6.77
2023-09-18T11:26:50.134Z,9.27
2023-09-18T11:29:24.336Z,6.47
2023-09-18T11:31:55.034Z,7.40
2023-09-18T11:34:27.571Z,6.17
2023-09-18T11:36:56.036Z,6.53
2023-09-18T11:39:38.105Z,6.97
2023-09-18T11:42:11.109Z,6.63
2023-09-18T11:44:43.449Z,7.27
2023-09-18T11:47:17.973Z,7.90
2023-09-18T11:49:55.549Z,7.27
2023-09-18T11:52:25.703Z,6.80
2023-09-18T11:54:55.678Z,8.73
2023-09-18T11:57:23.728Z,7.80
2023-09-18T11:59:52.055Z,7.93
2023-09-18T12:02:31.481Z,6.77
2023-09-18T12:05:00.905Z,5.93
2023-09-18T12:07:28.898Z,8.07
2023-09-18T12:09:56.952Z,6.23
2023-09-18T12:12:26.792Z,7.80
2023-09-18T12:14:55.439Z,8.37
2023-09-18T12:17:23.508Z,8.67
2023-09-18T12:19:55.590Z,9.27
2023-09-18T12:22:29.425Z,6.90
2023-09-18T12:25:13.943Z,7.00
2023-09-18T12:27:44.153Z,6.63
2023-09-18T12:30:16.069Z,7.47
2023-09-18T12:32:44.731Z,6.67
2023-09-18T12:35:16.513Z,6.37
2023-09-18T12:37:46.058Z,7.80
2023-09-18T12:40:24.964Z,9.90
2023-09-18T12:42:54.934Z,8.30
2023-09-18T12:45:23.293Z,8.90
2023-09-18T12:47:52.197Z,9.50
2023-09-18T12:50:20.627Z,6.83
2023-09-18T12:52:50.071Z,6.07
2023-09-18T12:55:25.981Z,8.00
2023-09-18T12:57:54.251Z,5.53
2023-09-18T13:00:24.140Z,7.10
2023-09-18T13:02:56.418Z,8.77
2023-09-18T13:05:27.101Z,7.70
2023-09-18T13:07:57.599Z,15.37
2023-09-18T13:10:29.060Z,6.03
2023-09-18T13:12:59.025Z,16.80
2023-09-18T13:15:29.413Z,8.27
2023-09-18T13:17:58.837Z,7.73
2023-09-18T13:20:30.200Z,4.83
2023-09-18T13:23:04.729Z,7.20
2023-09-18T13:25:35.112Z,7.77
2023-09-18T13:28:04.855Z,26.83
2023-09-18T13:30:35.133Z,18.47
2023-09-18T13:33:08.273Z,9.67
2023-09-18T13:35:36.694Z,8.80
2023-09-18T13:38:06.868Z,8.90
2023-09-18T13:40:36.818Z,6.77
2023-09-18T13:43:05.695Z,10.10
2023-09-18T13:45:36.126Z,5.10
2023-09-18T13:48:04.395Z,5.50
2023-09-18T13:50:33.795Z,7.03
2023-09-18T13:53:04.067Z,5.87
2023-09-18T13:55:34.184Z,4.80
2023-09-18T13:58:04.201Z,4.73
2023-09-18T14:00:32.906Z,5.53
2023-09-18T14:03:01.951Z,4.57
2023-09-18T14:05:31.270Z,5.83
2023-09-18T14:08:01.240Z,5.00
2023-09-18T14:10:30.132Z,6.43
2023-09-18T14:12:59.575Z,7.50
2023-09-18T14:15:27.706Z,5.03
2023-09-18T14:17:55.884Z,6.03
2023-09-18T14:20:24.101Z,6.60
2023-09-18T14:22:52.237Z,5.03
2023-09-18T14:25:21.317Z,4.23
2023-09-18T14:27:49.603Z,6.37
2023-09-18T14:30:19.805Z,7.00
2023-09-18T14:32:48.245Z,4.47
2023-09-18T14:35:16.362Z,5.10
2023-09-18T14:37:44.315Z,7.23
2023-09-18T14:40:13.460Z,6.73
2023-09-18T14:42:41.848Z,9.87
2023-09-18T14:45:11.161Z,5.07
2023-09-18T14:47:40.661Z,4.83
2023-09-18T14:50:09.620Z,6.90
2023-09-18T14:52:37.622Z,4.83
2023-09-18T14:55:06.630Z,6.20
2023-09-18T14:57:34.684Z,5.40
2023-09-18T15:00:02.713Z,3.90
2023-09-18T15:02:32.745Z,5.37
2023-09-18T15:05:02.249Z,6.07
2023-09-18T15:07:32.514Z,3.83
2023-09-18T15:10:02.076Z,6.63
2023-09-18T15:12:30.662Z,4.83
2023-09-18T15:14:58.769Z,6.83
2023-09-18T15:17:27.655Z,5.27
2023-09-18T15:19:56.718Z,5.03
2023-09-18T15:22:26.468Z,3.63
2023-09-18T15:24:57.022Z,3.87
2023-09-18T15:27:27.276Z,4.67
2023-09-18T15:29:55.721Z,7.10
2023-09-18T15:32:23.897Z,4.13
2023-09-18T15:34:52.086Z,5.10
2023-09-18T15:37:21.726Z,3.73
2023-09-18T15:39:52.250Z,4.67
2023-09-18T15:42:20.291Z,3.83
2023-09-18T15:44:48.370Z,6.13
2023-09-18T15:47:16.342Z,5.93
2023-09-18T15:49:44.321Z,4.53
2023-09-18T15:52:12.302Z,3.90
2023-09-18T15:54:41.224Z,6.17
2023-09-18T15:57:10.681Z,6.00
2023-09-18T15:59:38.804Z,4.17
2023-09-18T16:02:07.892Z,4.97
2023-09-18T16:04:37.344Z,5.67
2023-09-18T16:07:05.524Z,5.90
2023-09-18T16:09:33.552Z,5.57
2023-09-18T16:12:01.573Z,3.80
2023-09-18T16:14:31.075Z,4.60
2023-09-18T16:16:59.054Z,3.77
2023-09-18T16:19:27.013Z,3.93
2023-09-18T16:21:54.958Z,3.53
2023-09-18T16:24:22.951Z,4.30
2023-09-18T16:26:51.033Z,6.40
2023-09-18T16:29:19.193Z,4.10
2023-09-18T16:31:48.519Z,4.43
2023-09-18T16:34:16.594Z,4.27
2023-09-18T16:36:44.631Z,3.97
2023-09-18T16:39:15.884Z,3.07
2023-09-18T16:41:44.112Z,2.63
2023-09-18T16:44:12.288Z,5.57
2023-09-18T16:46:40.551Z,4.20
2023-09-18T16:49:10.929Z,3.63
2023-09-18T16:51:39.027Z,4.93
2023-09-18T16:54:07.222Z,3.77
2023-09-18T16:56:36.174Z,3.23
2023-09-18T16:59:04.279Z,4.40
2023-09-18T17:01:33.562Z,4.23
2023-09-18T17:04:01.932Z,4.20
2023-09-18T17:06:35.870Z,4.07
2023-09-18T17:09:08.487Z,4.80
2023-09-18T17:11:37.585Z,5.20
2023-09-18T17:14:05.738Z,3.53
2023-09-18T17:16:36.949Z,3.40
2023-09-18T17:19:06.721Z,3.03
2023-09-18T17:21:36.198Z,3.03
2023-09-18T17:24:05.814Z,4.53
2023-09-18T17:26:34.179Z,2.97
2023-09-18T17:29:02.268Z,5.23
2023-09-18T17:31:30.664Z,4.10
2023-09-18T17:33:58.845Z,2.37
2023-09-18T17:36:26.831Z,3.43
2023-09-18T17:38:56.176Z,2.93
2023-09-18T17:41:24.298Z,3.40
2023-09-18T17:43:52.373Z,3.37
2023-09-18T17:46:21.790Z,3.80
2023-09-18T17:48:49.863Z,2.73
2023-09-18T17:51:19.199Z,3.10
2023-09-18T17:53:47.195Z,3.93
2023-09-18T17:56:16.548Z,3.37
2023-09-18T17:58:44.916Z,4.73
2023-09-18T18:01:13.849Z,3.50
2023-09-18T18:03:44.568Z,2.53
2023-09-18T18:06:13.138Z,4.23
2023-09-18T18:08:42.151Z,2.73
2023-09-18T18:11:12.495Z,2.73
2023-09-18T18:13:41.793Z,9.53
2023-09-18T18:16:09.808Z,4.53
2023-09-18T18:18:38.738Z,4.63
2023-09-18T18:21:06.913Z,3.63
2023-09-18T18:23:35.011Z,4.43
2023-09-18T18:26:05.200Z,4.40
2023-09-18T18:28:33.161Z,2.87
2023-09-18T18:31:02.847Z,2.90
2023-09-18T18:33:30.984Z,2.80
2023-09-18T18:35:59.259Z,3.43
2023-09-18T18:38:27.983Z,3.90
2023-09-18T18:40:58.035Z,6.50
2023-09-18T18:43:26.325Z,5.53
2023-09-18T18:45:55.346Z,3.80
2023-09-18T18:48:26.806Z,2.40
2023-09-18T18:50:54.991Z,3.43
2023-09-18T18:53:23.493Z,3.17
2023-09-18T18:55:51.451Z,3.43
2023-09-18T18:58:19.434Z,2.47
2023-09-18T19:00:48.127Z,2.57
2023-09-18T19:03:16.222Z,2.30
2023-09-18T19:05:47.024Z,3.47
2023-09-18T19:08:15.064Z,4.50
2023-09-18T19:10:43.305Z,3.33
2023-09-18T19:13:13.563Z,3.13
2023-09-18T19:15:42.077Z,3.70
2023-09-18T19:18:10.098Z,3.70
2023-09-18T19:20:38.770Z,4.43
2023-09-18T19:23:08.300Z,3.40
2023-09-18T19:25:47.100Z,4.63
2023-09-18T19:28:15.552Z,3.43
2023-09-18T19:30:47.072Z,3.53
2023-09-18T19:33:15.857Z,3.43
2023-09-18T19:35:44.517Z,2.73
2023-09-18T19:38:14.390Z,4.13
2023-09-18T19:40:45.792Z,2.87
2023-09-18T19:43:13.804Z,2.60
2023-09-18T19:45:41.782Z,3.80
2023-09-18T19:48:10.303Z,4.27
2023-09-18T19:50:38.531Z,3.43
2023-09-18T19:53:06.533Z,3.90
2023-09-18T19:55:36.058Z,3.53
2023-09-18T19:58:05.757Z,3.83
2023-09-18T20:00:34.036Z,3.47
2023-09-18T20:03:02.226Z,4.27
2023-09-18T20:05:30.552Z,3.37
2023-09-18T20:07:58.515Z,4.47
2023-09-18T20:10:29.646Z,3.27
2023-09-18T20:12:58.971Z,1.97
2023-09-18T20:15:27.070Z,4.00
2023-09-18T20:17:55.859Z,2.40
2023-09-18T20:20:27.061Z,2.97
2023-09-18T20:22:55.038Z,2.20
2023-09-18T20:25:23.142Z,4.03
2023-09-18T20:27:51.093Z,1.77
2023-09-18T20:30:20.459Z,1.40
2023-09-18T20:32:48.577Z,2.07
2023-09-18T20:35:16.663Z,1.63
2023-09-18T20:37:44.728Z,1.40
2023-09-18T20:40:13.012Z,1.20
2023-09-18T20:42:40.975Z,1.70
2023-09-18T20:45:09.807Z,1.30
2023-09-18T20:47:39.501Z,1.13
2023-09-18T20:50:08.690Z,1.37
2023-09-18T20:52:38.282Z,1.10
2023-09-18T20:55:06.906Z,1.50
2023-09-18T20:57:34.906Z,1.20
2023-09-18T21:00:03.801Z,1.77
2023-09-18T21:02:31.849Z,1.23
2023-09-18T21:05:01.234Z,1.33
2023-09-18T21:07:29.887Z,1.63
2023-09-18T21:09:58.081Z,2.00
2023-09-18T21:12:27.191Z,1.30
2023-09-18T21:14:55.399Z,1.77
2023-09-18T21:17:23.405Z,1.57
2023-09-18T21:19:51.396Z,1.37
2023-09-18T21:22:21.340Z,2.13
2023-09-18T21:24:49.269Z,1.63
2023-09-18T21:27:17.784Z,1.80
2023-09-18T21:29:45.959Z,1.37
2023-09-18T21:32:13.893Z,1.57
2023-09-18T21:34:41.861Z,1.27
2023-09-18T21:37:09.782Z,1.83
2023-09-18T21:39:39.204Z,2.77
2023-09-18T21:42:07.628Z,1.30
2023-09-18T21:44:36.024Z,1.77
2023-09-18T21:47:08.455Z,1.33
2023-09-18T21:49:38.127Z,1.50
2023-09-18T21:52:06.458Z,1.63
2023-09-18T21:54:34.384Z,2.17
2023-09-18T21:57:03.687Z,1.43
2023-09-18T21:59:31.673Z,2.07
2023-09-18T22:01:59.635Z,1.60
2023-09-18T22:04:27.687Z,1.87
2023-09-18T22:06:55.709Z,1.37
2023-09-18T22:09:24.767Z,1.13
2023-09-18T22:11:52.877Z,2.70
2023-09-18T22:14:22.958Z,2.27
2023-09-18T22:16:50.952Z,2.00
2023-09-18T22:19:18.935Z,1.70
2023-09-18T22:21:48.567Z,1.83
2023-09-18T22:24:18.609Z,3.00
2023-09-18T22:26:47.579Z,2.90
2023-09-18T22:29:16.165Z,2.57
2023-09-18T22:31:49.923Z,4.30
2023-09-18T22:34:17.900Z,1.43
2023-09-18T22:39:38.119Z,2.60
2023-09-18T22:42:07.899Z,2.20
2023-09-18T22:45:13.206Z,1.37
2023-09-18T22:48:20.726Z,1.50
2023-09-18T22:51:26.230Z,2.40
2023-09-18T22:53:53.922Z,2.83
2023-09-18T22:56:26.913Z,2.10
2023-09-18T22:58:55.378Z,2.80
2023-09-18T23:01:27.173Z,2.07
2023-09-18T23:03:55.578Z,2.23
2023-09-18T23:06:27.729Z,3.33
2023-09-18T23:08:56.442Z,3.60
2023-09-18T23:11:25.786Z,4.30
2023-09-18T23:13:53.917Z,2.00
2023-09-18T23:16:26.272Z,2.57
2023-09-18T23:18:54.537Z,3.93
2023-09-18T23:21:22.545Z,4.13
2023-09-18T23:23:50.688Z,2.30
2023-09-18T23:26:20.669Z,2.97
2023-09-18T23:28:50.207Z,3.83
2023-09-18T23:31:18.387Z,2.83
2023-09-18T23:33:47.968Z,2.90
2023-09-18T23:36:18.075Z,2.63
2023-09-18T23:38:49.331Z,2.33
2023-09-18T23:41:17.316Z,3.60
2023-09-18T23:43:46.040Z,4.23
2023-09-18T23:46:17.039Z,2.67
2023-09-18T23:48:46.682Z,3.47
2023-09-18T23:51:15.131Z,3.83
2023-09-18T23:53:43.137Z,2.70
2023-09-18T23:56:14.070Z,3.57
2023-09-18T23:58:42.875Z,3.10
